createdAt,value
2022-12-04T00:01:52.162Z,18.80
2022-12-04T00:03:55.617Z,16.80
2022-12-04T00:06:12.660Z,16.97
2022-12-04T00:08:14.535Z,18.33
2022-12-04T00:10:16.414Z,19.50
2022-12-04T00:12:18.159Z,17.73
2022-12-04T00:14:19.882Z,19.77
2022-12-04T00:16:24.770Z,18.77
2022-12-04T00:18:27.246Z,18.10
2022-12-04T00:20:29.020Z,19.97
2022-12-04T00:22:30.730Z,18.60
2022-12-04T00:24:32.505Z,18.47
2022-12-04T00:26:34.736Z,19.17
2022-12-04T00:28:37.452Z,20.50
2022-12-04T00:30:41.811Z,19.10
2022-12-04T00:32:43.492Z,20.03
2022-12-04T00:34:45.190Z,17.80
2022-12-04T00:36:46.889Z,20.50
2022-12-04T00:38:49.188Z,18.57
2022-12-04T00:40:52.210Z,19.30
2022-12-04T00:42:53.968Z,19.27
2022-12-04T00:44:55.618Z,20.20
2022-12-04T00:46:57.343Z,18.23
2022-12-04T00:49:01.850Z,18.93
2022-12-04T00:51:09.795Z,19.60
2022-12-04T00:53:12.681Z,18.20
2022-12-04T00:55:14.480Z,20.10
2022-12-04T00:57:16.370Z,18.50
2022-12-04T00:59:18.040Z,19.03
2022-12-04T01:01:21.491Z,18.60
2022-12-04T01:03:23.376Z,19.63
2022-12-04T01:05:25.084Z,17.73
2022-12-04T01:07:26.838Z,19.50
2022-12-04T01:09:28.669Z,18.90
2022-12-04T01:11:31.347Z,19.50
2022-12-04T01:13:33.093Z,20.53
2022-12-04T01:15:39.707Z,20.50
2022-12-04T01:17:41.527Z,19.13
2022-12-04T01:19:43.220Z,22.47
2022-12-04T01:21:45.248Z,21.10
2022-12-04T01:23:47.040Z,21.97
2022-12-04T01:25:56.951Z,21.60
2022-12-04T01:27:58.764Z,19.50
2022-12-04T01:30:00.499Z,20.80
2022-12-04T01:32:02.220Z,21.63
2022-12-04T01:34:04.244Z,19.90
2022-12-04T01:36:08.380Z,19.07
2022-12-04T01:38:10.047Z,19.40
2022-12-04T01:40:16.297Z,22.03
2022-12-04T01:42:18.025Z,20.63
2022-12-04T01:44:25.488Z,20.67
2022-12-04T01:46:27.379Z,21.23
2022-12-04T01:48:51.411Z,22.27
2022-12-04T01:50:58.600Z,19.83
2022-12-04T01:53:00.493Z,21.00
2022-12-04T01:55:02.271Z,22.97
2022-12-04T01:57:09.292Z,21.43
2022-12-04T01:59:14.397Z,21.20
2022-12-04T02:01:16.147Z,21.53
2022-12-04T02:03:18.456Z,21.47
2022-12-04T02:05:21.934Z,24.10
2022-12-04T02:07:23.756Z,22.30
2022-12-04T02:09:27.125Z,21.87
2022-12-04T02:11:38.073Z,23.17
2022-12-04T02:14:04.032Z,20.90
2022-12-04T02:16:26.819Z,22.20
2022-12-04T02:18:48.713Z,22.43
2022-12-04T02:20:56.920Z,22.70
2022-12-04T02:23:12.523Z,21.90
2022-12-04T02:25:37.314Z,23.30
2022-12-04T02:27:41.737Z,22.53
2022-12-04T02:30:00.954Z,19.70
2022-12-04T02:32:11.498Z,21.83
2022-12-04T02:34:28.279Z,22.47
2022-12-04T02:36:35.309Z,21.60
2022-12-04T02:38:42.468Z,23.17
2022-12-04T02:41:05.453Z,22.40
2022-12-04T02:43:13.362Z,23.60
2022-12-04T02:45:21.601Z,23.17
2022-12-04T02:47:25.277Z,23.63
2022-12-04T02:49:39.991Z,22.87
2022-12-04T02:51:44.908Z,21.90
2022-12-04T02:53:59.865Z,22.50
2022-12-04T02:56:14.597Z,22.37
2022-12-04T02:58:25.541Z,22.80
2022-12-04T03:00:29.951Z,21.90
2022-12-04T03:02:38.308Z,21.50
2022-12-04T03:04:41.075Z,22.03
2022-12-04T03:06:45.773Z,24.03
2022-12-04T03:08:57.127Z,21.23
2022-12-04T03:11:01.040Z,22.70
2022-12-04T03:13:10.849Z,21.80
2022-12-04T03:15:19.225Z,22.87
2022-12-04T03:17:31.054Z,21.70
2022-12-04T03:19:43.995Z,20.47
2022-12-04T03:21:57.933Z,19.80
2022-12-04T03:24:18.131Z,22.90
2022-12-04T03:26:37.164Z,20.20
2022-12-04T03:28:54.107Z,20.57
2022-12-04T03:31:03.967Z,20.47
2022-12-04T03:33:14.329Z,22.83
2022-12-04T03:35:34.028Z,22.80
2022-12-04T03:37:49.563Z,21.23
2022-12-04T03:40:36.472Z,22.40
2022-12-04T03:43:02.494Z,21.20
2022-12-04T03:45:40.754Z,21.80
2022-12-04T03:47:55.380Z,22.27
2022-12-04T03:50:02.261Z,19.40
2022-12-04T03:52:27.461Z,22.70
2022-12-04T03:54:34.335Z,20.90
2022-12-04T03:56:44.358Z,20.27
2022-12-04T03:58:50.603Z,21.87
2022-12-04T04:00:55.596Z,20.40
2022-12-04T04:03:07.128Z,21.70
2022-12-04T04:05:10.900Z,21.00
2022-12-04T04:07:34.839Z,21.87
2022-12-04T04:09:41.411Z,21.60
2022-12-04T04:11:53.158Z,20.73
2022-12-04T04:14:38.150Z,21.80
2022-12-04T04:17:04.132Z,21.50
2022-12-04T04:19:27.612Z,20.40
2022-12-04T04:21:51.873Z,20.30
2022-12-04T04:24:12.654Z,19.70
2022-12-04T04:26:16.503Z,20.30
2022-12-04T04:28:50.386Z,20.43
2022-12-04T04:30:52.246Z,19.83
2022-12-04T04:32:59.309Z,20.63
2022-12-04T04:35:14.987Z,20.70
2022-12-04T04:37:44.983Z,21.40
2022-12-04T04:40:21.847Z,21.30
2022-12-04T04:42:55.016Z,22.33
2022-12-04T04:45:02.753Z,20.20
2022-12-04T04:47:09.170Z,21.33
2022-12-04T04:49:12.568Z,20.70
2022-12-04T04:51:14.909Z,21.17
2022-12-04T04:53:21.105Z,21.40
2022-12-04T04:55:24.057Z,18.60
2022-12-04T04:57:31.226Z,19.73
2022-12-04T04:59:34.553Z,21.40
2022-12-04T05:01:38.075Z,20.13
2022-12-04T05:03:40.804Z,19.13
2022-12-04T05:05:42.470Z,21.10
2022-12-04T05:07:44.264Z,19.23
2022-12-04T05:09:46.006Z,19.93
2022-12-04T05:11:47.744Z,19.70
2022-12-04T05:13:49.451Z,19.30
2022-12-04T05:16:02.152Z,19.67
2022-12-04T05:18:04.173Z,18.50
2022-12-04T05:20:06.676Z,18.93
2022-12-04T05:22:09.525Z,18.57
2022-12-04T05:24:11.193Z,19.50
2022-12-04T05:26:12.864Z,18.60
2022-12-04T05:28:14.860Z,20.20
2022-12-04T05:30:17.096Z,19.80
2022-12-04T05:32:18.745Z,19.60
2022-12-04T05:34:20.369Z,20.83
2022-12-04T05:36:22.033Z,19.83
2022-12-04T05:38:23.801Z,19.70
2022-12-04T05:40:25.542Z,18.63
2022-12-04T05:42:27.268Z,20.23
2022-12-04T05:44:29.209Z,20.13
2022-12-04T05:46:30.937Z,21.93
2022-12-04T05:48:33.352Z,21.50
2022-12-04T05:50:35.094Z,20.50
2022-12-04T05:52:36.789Z,20.43
2022-12-04T05:54:38.936Z,20.13
2022-12-04T05:56:40.717Z,21.53
2022-12-04T05:58:42.552Z,19.70
2022-12-04T06:00:44.338Z,20.10
2022-12-04T06:02:46.083Z,19.60
2022-12-04T06:04:47.897Z,20.47
2022-12-04T06:06:49.760Z,20.27
2022-12-04T06:08:53.183Z,19.27
2022-12-04T06:10:54.852Z,20.07
2022-12-04T06:12:57.688Z,19.00
2022-12-04T06:14:59.373Z,19.60
2022-12-04T06:17:01.115Z,18.83
2022-12-04T06:19:09.702Z,18.80
2022-12-04T06:21:11.683Z,19.63
2022-12-04T06:23:13.409Z,16.37
2022-12-04T06:25:15.179Z,17.63
2022-12-04T06:27:32.226Z,20.37
2022-12-04T06:29:33.975Z,19.43
2022-12-04T06:31:36.254Z,17.43
2022-12-04T06:33:38.633Z,19.20
2022-12-04T06:35:40.376Z,18.57
2022-12-04T06:37:42.030Z,19.57
2022-12-04T06:39:43.798Z,18.17
2022-12-04T06:41:47.269Z,17.93
2022-12-04T06:43:50.709Z,18.03
2022-12-04T06:46:03.781Z,19.30
2022-12-04T06:48:05.659Z,23.67
2022-12-04T06:50:08.233Z,24.50
2022-12-04T06:52:10.057Z,19.70
2022-12-04T06:54:11.903Z,21.37
2022-12-04T06:56:18.385Z,23.80
2022-12-04T06:58:20.056Z,30.47
2022-12-04T07:00:21.736Z,21.57
2022-12-04T07:02:23.550Z,20.33
2022-12-04T07:04:25.249Z,20.57
2022-12-04T07:06:29.530Z,21.67
2022-12-04T07:08:31.400Z,21.40
2022-12-04T07:10:35.792Z,23.83
2022-12-04T07:12:37.498Z,22.47
2022-12-04T07:14:39.311Z,23.73
2022-12-04T07:16:42.696Z,17.70
2022-12-04T07:18:44.984Z,21.50
2022-12-04T07:20:46.681Z,22.17
2022-12-04T07:22:48.404Z,21.90
2022-12-04T07:24:50.069Z,23.73
2022-12-04T07:26:52.020Z,24.53
2022-12-04T07:28:54.980Z,27.13
2022-12-04T07:30:56.679Z,21.47
2022-12-04T07:32:58.537Z,25.93
2022-12-04T07:35:00.340Z,23.17
2022-12-04T07:37:02.295Z,38.13
2022-12-04T07:39:04.071Z,25.20
2022-12-04T07:41:07.309Z,27.30
2022-12-04T07:43:09.191Z,26.43
2022-12-04T07:45:11.152Z,28.17
2022-12-04T07:47:13.199Z,18.57
2022-12-04T07:49:15.095Z,22.57
2022-12-04T07:51:23.351Z,19.63
2022-12-04T07:53:25.163Z,19.40
2022-12-04T07:55:26.935Z,23.50
2022-12-04T07:57:29.128Z,19.93
2022-12-04T07:59:30.934Z,30.10
2022-12-04T08:01:32.849Z,25.80
2022-12-04T08:03:34.652Z,26.60
2022-12-04T08:05:36.386Z,27.20
2022-12-04T08:07:38.192Z,22.00
2022-12-04T08:09:40.335Z,25.87
2022-12-04T08:11:42.469Z,24.47
2022-12-04T08:13:45.674Z,23.13
2022-12-04T08:15:47.853Z,21.60
2022-12-04T08:17:50.069Z,25.10
2022-12-04T08:19:51.756Z,24.37
2022-12-04T08:21:56.607Z,24.10
2022-12-04T08:24:00.091Z,27.57
2022-12-04T08:26:02.936Z,29.17
2022-12-04T08:28:04.773Z,21.07
2022-12-04T08:30:07.361Z,24.23
2022-12-04T08:32:09.353Z,24.17
2022-12-04T08:34:11.136Z,16.70
2022-12-04T08:36:16.154Z,23.00
2022-12-04T08:38:17.847Z,20.00
2022-12-04T08:40:19.944Z,22.50
2022-12-04T08:42:21.659Z,19.20
2022-12-04T08:44:23.507Z,18.87
2022-12-04T08:46:26.829Z,17.67
2022-12-04T08:48:29.103Z,17.60
2022-12-04T08:50:30.979Z,16.90
2022-12-04T08:52:32.925Z,18.17
2022-12-04T08:54:36.193Z,16.53
2022-12-04T08:56:38.171Z,16.67
2022-12-04T08:58:40.473Z,17.07
2022-12-04T09:00:42.890Z,18.27
2022-12-04T09:02:44.601Z,17.97
2022-12-04T09:04:46.378Z,16.53
2022-12-04T09:06:48.143Z,14.27
2022-12-04T09:08:56.134Z,19.03
2022-12-04T09:11:09.268Z,21.50
2022-12-04T09:13:11.613Z,18.73
2022-12-04T09:15:14.895Z,17.30
2022-12-04T09:17:16.956Z,16.93
2022-12-04T09:19:19.222Z,16.63
2022-12-04T09:21:23.444Z,15.83
2022-12-04T09:23:26.981Z,18.60
2022-12-04T09:25:29.047Z,16.30
2022-12-04T09:27:36.050Z,16.77
2022-12-04T09:29:37.767Z,17.00
2022-12-04T09:31:39.434Z,17.23
2022-12-04T09:33:41.235Z,17.03
2022-12-04T09:35:43.128Z,18.03
2022-12-04T09:37:45.043Z,15.63
2022-12-04T09:39:46.911Z,16.87
2022-12-04T09:41:58.077Z,15.33
2022-12-04T09:44:08.196Z,14.43
2022-12-04T09:46:15.377Z,15.70
2022-12-04T09:48:19.586Z,14.80
2022-12-04T09:50:26.561Z,14.20
2022-12-04T09:52:58.873Z,15.43
2022-12-04T09:55:02.729Z,15.23
2022-12-04T09:57:30.869Z,16.50
2022-12-04T09:59:33.157Z,19.87
2022-12-04T10:01:51.467Z,18.10
2022-12-04T10:03:54.808Z,16.67
2022-12-04T10:06:27.177Z,16.30
2022-12-04T10:08:46.740Z,15.27
2022-12-04T10:11:17.664Z,20.90
2022-12-04T10:13:44.842Z,16.50
2022-12-04T10:15:54.388Z,15.80
2022-12-04T10:18:28.825Z,16.10
2022-12-04T10:21:22.180Z,15.87
2022-12-04T10:23:44.754Z,16.43
2022-12-04T10:25:47.477Z,16.30
2022-12-04T10:27:53.372Z,14.70
2022-12-04T10:30:26.461Z,15.50
2022-12-04T10:32:35.104Z,15.77
2022-12-04T10:34:42.504Z,15.03
2022-12-04T10:36:51.805Z,14.70
2022-12-04T10:38:57.656Z,17.80
2022-12-04T10:41:14.682Z,16.13
2022-12-04T10:43:42.955Z,17.97
2022-12-04T10:45:44.838Z,14.93
2022-12-04T10:47:49.819Z,15.20
2022-12-04T10:50:00.414Z,20.77
2022-12-04T10:52:02.801Z,15.40
2022-12-04T10:54:34.393Z,16.57
2022-12-04T10:56:36.150Z,16.67
2022-12-04T10:58:37.922Z,20.47
2022-12-04T11:00:39.679Z,20.20
2022-12-04T11:02:41.705Z,19.23
2022-12-04T11:04:43.812Z,17.00
2022-12-04T11:06:46.054Z,15.53
2022-12-04T11:08:51.900Z,17.50
2022-12-04T11:11:02.076Z,15.63
2022-12-04T11:13:05.967Z,16.70
2022-12-04T11:15:07.675Z,16.10
2022-12-04T11:17:17.238Z,16.33
2022-12-04T11:19:27.236Z,16.47
2022-12-04T11:21:32.056Z,17.37
2022-12-04T11:23:48.620Z,16.13
2022-12-04T11:25:53.728Z,18.50
2022-12-04T11:27:59.565Z,26.10
2022-12-04T11:30:07.566Z,20.67
2022-12-04T11:32:26.429Z,18.90
2022-12-04T11:34:40.575Z,20.80
2022-12-04T11:36:42.984Z,18.77
2022-12-04T11:38:45.004Z,15.43
2022-12-04T11:40:53.675Z,20.20
2022-12-04T11:43:21.522Z,18.93
2022-12-04T11:45:23.804Z,18.70
2022-12-04T11:47:30.422Z,15.90
2022-12-04T11:49:33.408Z,15.33
2022-12-04T11:51:53.671Z,14.93
2022-12-04T11:54:22.939Z,15.13
2022-12-04T11:56:39.753Z,13.90
2022-12-04T11:59:06.167Z,15.13
2022-12-04T12:01:35.080Z,16.03
2022-12-04T12:03:48.541Z,15.30
2022-12-04T12:06:16.140Z,15.30
2022-12-04T12:08:43.040Z,16.00
2022-12-04T12:11:20.657Z,15.37
2022-12-04T12:13:25.791Z,15.60
2022-12-04T12:15:50.927Z,15.50
2022-12-04T12:18:27.125Z,16.00
2022-12-04T12:20:59.699Z,15.40
2022-12-04T12:23:16.917Z,15.10
2022-12-04T12:25:32.650Z,15.87
2022-12-04T12:27:56.401Z,17.67
2022-12-04T12:30:18.475Z,15.80
2022-12-04T12:32:38.570Z,18.57
2022-12-04T12:34:46.060Z,16.97
2022-12-04T12:36:50.967Z,17.10
2022-12-04T12:39:01.640Z,18.27
2022-12-04T12:41:08.610Z,16.97
2022-12-04T12:43:13.234Z,15.17
2022-12-04T12:45:39.014Z,12.97
2022-12-04T12:47:45.538Z,14.40
2022-12-04T12:49:58.301Z,14.93
2022-12-04T12:52:15.000Z,15.50
2022-12-04T12:54:36.086Z,15.63
2022-12-04T12:56:47.805Z,14.37
2022-12-04T12:58:56.079Z,15.47
2022-12-04T13:01:24.836Z,14.97
2022-12-04T13:03:49.005Z,15.53
2022-12-04T13:05:55.292Z,16.47
2022-12-04T13:08:27.720Z,14.87
2022-12-04T13:10:37.862Z,16.60
2022-12-04T13:12:58.101Z,14.90
2022-12-04T13:14:59.802Z,16.70
2022-12-04T13:17:08.415Z,17.33
2022-12-04T13:19:34.340Z,17.73
2022-12-04T13:21:48.025Z,16.40
2022-12-04T13:24:09.944Z,13.33
2022-12-04T13:26:14.598Z,14.83
2022-12-04T13:28:57.699Z,16.40
2022-12-04T13:31:21.446Z,15.17
2022-12-04T13:33:45.024Z,15.53
2022-12-04T13:36:20.492Z,14.23
2022-12-04T13:38:33.614Z,15.00
2022-12-04T13:40:52.021Z,15.40
2022-12-04T13:43:05.817Z,15.83
2022-12-04T13:45:11.932Z,14.80
2022-12-04T13:47:33.106Z,15.20
2022-12-04T13:49:42.131Z,15.73
2022-12-04T13:51:45.832Z,15.70
2022-12-04T13:53:48.330Z,15.50
2022-12-04T13:55:56.716Z,23.00
2022-12-04T13:58:02.340Z,21.40
2022-12-04T14:00:23.260Z,14.60
2022-12-04T14:02:35.672Z,15.50
2022-12-04T14:04:45.526Z,16.37
2022-12-04T14:06:51.684Z,15.53
2022-12-04T14:09:04.125Z,16.33
2022-12-04T14:11:18.891Z,16.73
2022-12-04T14:13:25.048Z,18.90
2022-12-04T14:15:33.137Z,18.57
2022-12-04T14:17:38.354Z,20.00
2022-12-04T14:19:45.430Z,18.70
2022-12-04T14:21:50.210Z,16.83
2022-12-04T14:23:53.116Z,16.50
2022-12-04T14:25:57.071Z,21.73
2022-12-04T14:27:58.941Z,17.30
2022-12-04T14:30:02.164Z,19.17
2022-12-04T14:32:22.302Z,20.77
2022-12-04T14:34:31.951Z,17.10
2022-12-04T14:36:45.706Z,18.10
2022-12-04T14:38:53.236Z,18.20
2022-12-04T14:40:59.117Z,17.07
2022-12-04T14:43:01.029Z,21.10
2022-12-04T14:45:06.391Z,25.73
2022-12-04T14:47:35.928Z,19.87
2022-12-04T14:49:57.592Z,19.40
2022-12-04T14:52:13.485Z,29.87
2022-12-04T14:54:34.322Z,23.50
2022-12-04T14:56:47.877Z,22.30
2022-12-04T14:58:50.594Z,19.97
2022-12-04T15:00:54.620Z,20.37
2022-12-04T15:02:59.042Z,27.40
2022-12-04T15:05:02.650Z,23.97
2022-12-04T15:07:05.000Z,25.53
2022-12-04T15:09:39.011Z,23.10
2022-12-04T15:12:04.847Z,26.40
2022-12-04T15:14:25.167Z,31.70
2022-12-04T15:16:26.873Z,33.93
2022-12-04T15:18:29.070Z,27.10
2022-12-04T15:20:50.016Z,20.53
2022-12-04T15:22:53.835Z,26.20
2022-12-04T15:24:56.415Z,25.20
2022-12-04T15:26:58.640Z,22.70
2022-12-04T15:29:03.072Z,25.27
2022-12-04T15:31:10.277Z,25.30
2022-12-04T15:33:21.431Z,26.50
2022-12-04T15:35:29.551Z,29.33
2022-12-04T15:37:32.861Z,23.17
2022-12-04T15:39:36.667Z,25.90
2022-12-04T15:41:38.616Z,27.20
2022-12-04T15:43:42.807Z,26.20
2022-12-04T15:45:44.620Z,24.50
2022-12-04T15:47:46.203Z,28.73
2022-12-04T15:49:47.885Z,30.40
2022-12-04T15:51:49.738Z,47.37
2022-12-04T15:53:51.396Z,28.00
2022-12-04T15:55:56.027Z,28.03
2022-12-04T15:58:05.764Z,26.20
2022-12-04T16:00:21.545Z,30.53
2022-12-04T16:02:33.052Z,24.80
2022-12-04T16:04:43.974Z,22.47
2022-12-04T16:06:49.060Z,29.33
2022-12-04T16:08:55.861Z,33.80
2022-12-04T16:11:04.627Z,29.60
2022-12-04T16:13:06.389Z,35.13
2022-12-04T16:15:08.259Z,28.73
2022-12-04T16:17:12.371Z,28.33
2022-12-04T16:19:25.921Z,34.57
2022-12-04T16:21:31.424Z,32.17
2022-12-04T16:23:33.688Z,33.27
2022-12-04T16:25:35.401Z,29.80
2022-12-04T16:27:37.243Z,35.73
2022-12-04T16:29:39.267Z,55.27
2022-12-04T16:31:40.999Z,43.60
2022-12-04T16:33:42.787Z,49.50
2022-12-04T16:35:44.848Z,42.07
2022-12-04T16:37:47.235Z,64.20
2022-12-04T16:39:49.427Z,50.73
2022-12-04T16:41:51.079Z,50.90
2022-12-04T16:43:56.069Z,40.70
2022-12-04T16:46:00.695Z,42.40
2022-12-04T16:48:02.448Z,42.20
2022-12-04T16:50:04.526Z,51.03
2022-12-04T16:52:06.578Z,53.70
2022-12-04T16:54:10.185Z,37.20
2022-12-04T16:56:11.859Z,43.07
2022-12-04T16:58:14.095Z,31.40
2022-12-04T17:00:17.050Z,36.50
2022-12-04T17:02:23.959Z,35.97
2022-12-04T17:04:25.911Z,35.97
2022-12-04T17:06:27.788Z,42.43
2022-12-04T17:08:29.915Z,46.17
2022-12-04T17:10:31.782Z,57.93
2022-12-04T17:12:33.492Z,48.77
2022-12-04T17:14:35.830Z,46.67
2022-12-04T17:16:42.934Z,55.40
2022-12-04T17:18:44.767Z,41.60
2022-12-04T17:20:46.493Z,58.03
2022-12-04T17:22:49.341Z,48.90
2022-12-04T17:24:55.887Z,51.77
2022-12-04T17:26:58.262Z,55.43
2022-12-04T17:28:59.930Z,59.37
2022-12-04T17:31:04.521Z,44.07
2022-12-04T17:33:06.191Z,39.07
2022-12-04T17:35:09.777Z,48.30
2022-12-04T17:37:11.499Z,48.67
2022-12-04T17:39:13.575Z,56.03
2022-12-04T17:41:15.832Z,50.47
2022-12-04T17:43:21.908Z,51.77
2022-12-04T17:45:23.915Z,43.47
2022-12-04T17:47:25.577Z,71.07
2022-12-04T17:49:27.395Z,65.73
2022-12-04T17:51:29.145Z,55.70
2022-12-04T17:53:30.916Z,71.97
2022-12-04T17:55:34.212Z,93.60
2022-12-04T17:57:36.976Z,75.33
2022-12-04T17:59:38.882Z,72.27
2022-12-04T18:01:40.528Z,68.13
2022-12-04T18:03:43.835Z,65.53
2022-12-04T18:05:45.528Z,72.43
2022-12-04T18:07:47.477Z,78.50
2022-12-04T18:09:49.267Z,65.60
2022-12-04T18:11:51.030Z,49.50
2022-12-04T18:14:11.517Z,62.23
2022-12-04T18:16:13.847Z,45.33
2022-12-04T18:18:15.584Z,47.43
2022-12-04T18:20:17.385Z,50.30
2022-12-04T18:22:19.048Z,51.73
2022-12-04T18:24:21.406Z,65.03
2022-12-04T18:26:26.903Z,60.63
2022-12-04T18:28:30.879Z,57.67
2022-12-04T18:30:34.565Z,66.57
2022-12-04T18:32:36.378Z,67.87
2022-12-04T18:34:38.048Z,74.43
2022-12-04T18:36:41.999Z,65.53
2022-12-04T18:38:44.095Z,81.60
2022-12-04T18:40:45.884Z,66.07
2022-12-04T18:42:47.581Z,90.00
2022-12-04T18:44:49.265Z,87.43
2022-12-04T18:46:51.159Z,66.73
2022-12-04T18:48:54.645Z,54.17
2022-12-04T18:50:56.479Z,77.37
2022-12-04T18:53:01.372Z,57.33
2022-12-04T18:55:03.242Z,73.17
2022-12-04T18:57:04.870Z,77.70
2022-12-04T18:59:10.055Z,55.20
2022-12-04T19:01:14.520Z,59.67
2022-12-04T19:03:16.256Z,54.53
2022-12-04T19:05:18.157Z,46.00
2022-12-04T19:07:19.951Z,45.40
2022-12-04T19:09:47.140Z,52.30
2022-12-04T19:11:46.937Z,48.30
2022-12-04T19:13:48.807Z,70.80
2022-12-04T19:15:50.553Z,32.90
2022-12-04T19:17:52.204Z,72.10
2022-12-04T19:19:54.395Z,80.10
2022-12-04T19:21:56.559Z,65.00
2022-12-04T19:24:00.374Z,57.83
2022-12-04T19:26:03.127Z,62.67
2022-12-04T19:28:05.402Z,63.87
2022-12-04T19:30:07.919Z,56.83
2022-12-04T19:32:10.747Z,58.33
2022-12-04T19:34:12.484Z,70.90
2022-12-04T19:36:15.126Z,58.20
2022-12-04T19:38:16.849Z,70.47
2022-12-04T19:40:18.616Z,62.90
2022-12-04T19:42:20.367Z,69.20
2022-12-04T19:46:44.272Z,87.90
2022-12-04T19:48:50.033Z,78.70
2022-12-04T19:50:51.739Z,80.33
2022-12-04T19:52:53.527Z,86.60
2022-12-04T19:54:55.791Z,78.33
2022-12-04T19:56:57.494Z,81.23
2022-12-04T19:59:03.002Z,72.93
2022-12-04T20:01:07.235Z,77.83
2022-12-04T20:03:08.969Z,80.83
2022-12-04T20:05:10.601Z,70.03
2022-12-04T20:07:12.650Z,37.90
2022-12-04T20:09:20.167Z,71.30
2022-12-04T20:11:22.015Z,74.43
2022-12-04T20:13:23.823Z,61.20
2022-12-04T20:15:25.600Z,61.20
2022-12-04T20:17:28.369Z,67.43
2022-12-04T20:19:32.614Z,74.80
2022-12-04T20:21:34.657Z,74.70
2022-12-04T20:23:37.279Z,83.33
2022-12-04T20:25:38.943Z,58.67
2022-12-04T20:27:40.551Z,71.47
2022-12-04T20:29:43.015Z,61.93
2022-12-04T20:31:46.728Z,60.07
2022-12-04T20:33:50.975Z,83.50
2022-12-04T20:35:52.735Z,81.47
2022-12-04T20:37:54.825Z,96.73
2022-12-04T20:39:57.028Z,61.63
2022-12-04T20:42:01.091Z,78.53
2022-12-04T20:44:04.994Z,85.43
2022-12-04T20:46:28.429Z,88.17
2022-12-04T20:48:30.310Z,81.13
2022-12-04T20:50:32.549Z,84.13
2022-12-04T20:52:34.256Z,80.17
2022-12-04T20:54:41.243Z,39.60
2022-12-04T20:56:43.516Z,66.27
2022-12-04T20:58:45.798Z,69.20
2022-12-04T21:00:47.981Z,90.03
2022-12-04T21:02:50.103Z,63.90
2022-12-04T21:04:51.979Z,63.63
2022-12-04T21:06:53.626Z,72.10
2022-12-04T21:08:59.180Z,92.17
2022-12-04T21:11:00.828Z,81.00
2022-12-04T21:13:21.206Z,67.57
2022-12-04T21:15:41.561Z,72.30
2022-12-04T21:17:43.227Z,75.37
2022-12-04T21:19:50.436Z,62.53
2022-12-04T21:21:52.748Z,80.67
2022-12-04T21:23:54.469Z,85.03
2022-12-04T21:25:56.201Z,76.93
2022-12-04T21:27:58.047Z,66.77
2022-12-04T21:29:59.903Z,61.07
2022-12-04T21:32:01.953Z,73.77
2022-12-04T21:34:06.313Z,99.97
2022-12-04T21:36:09.672Z,80.67
2022-12-04T21:38:11.377Z,61.17
2022-12-04T21:40:13.291Z,43.47
2022-12-04T21:42:30.534Z,51.80
2022-12-04T21:44:32.252Z,70.30
2022-12-04T21:46:34.367Z,46.23
2022-12-04T21:48:36.491Z,61.07
2022-12-04T21:50:38.141Z,58.17
2022-12-04T21:52:40.003Z,81.50
2022-12-04T21:54:41.732Z,59.03
2022-12-04T21:56:43.739Z,50.27
2022-12-04T21:58:45.441Z,43.00
2022-12-04T22:00:47.627Z,33.80
2022-12-04T22:02:49.378Z,36.97
2022-12-04T22:04:51.178Z,44.70
2022-12-04T22:06:53.102Z,29.27
2022-12-04T22:08:55.563Z,38.90
2022-12-04T22:10:57.887Z,37.73
2022-12-04T22:12:59.552Z,42.23
2022-12-04T22:15:01.225Z,36.87
2022-12-04T22:17:03.177Z,33.80
2022-12-04T22:19:04.772Z,33.17
2022-12-04T22:21:09.221Z,29.10
2022-12-04T22:23:11.388Z,34.83
2022-12-04T22:25:14.603Z,31.60
2022-12-04T22:27:16.527Z,33.20
2022-12-04T22:29:48.652Z,32.90
2022-12-04T22:31:40.300Z,31.27
2022-12-04T22:33:42.736Z,28.33
2022-12-04T22:35:44.827Z,29.63
2022-12-04T22:37:46.907Z,31.00
2022-12-04T22:39:48.566Z,32.87
2022-12-04T22:41:50.221Z,29.57
2022-12-04T22:43:52.600Z,33.10
2022-12-04T22:45:54.530Z,28.53
2022-12-04T22:47:56.256Z,35.33
2022-12-04T22:49:58.165Z,32.37
2022-12-04T22:51:59.978Z,30.67
2022-12-04T22:54:01.991Z,33.67
2022-12-04T22:56:12.345Z,32.87
2022-12-04T22:58:14.065Z,39.70
2022-12-04T23:00:16.013Z,26.27
2022-12-04T23:02:17.684Z,58.00
2022-12-04T23:04:19.284Z,45.10
2022-12-04T23:06:23.908Z,29.77
2022-12-04T23:08:25.773Z,25.23
2022-12-04T23:10:27.383Z,27.37
2022-12-04T23:12:29.764Z,23.83
2022-12-04T23:14:32.556Z,26.13
2022-12-04T23:16:36.338Z,25.87
2022-12-04T23:18:38.130Z,27.60
2022-12-04T23:20:39.918Z,26.50
2022-12-04T23:22:41.611Z,25.50
2022-12-04T23:24:43.509Z,25.37
2022-12-04T23:26:46.633Z,23.57
2022-12-04T23:28:48.578Z,25.73
2022-12-04T23:30:50.220Z,24.83
2022-12-04T23:32:51.843Z,22.57
2022-12-04T23:34:53.481Z,23.30
2022-12-04T23:36:55.105Z,24.77
2022-12-04T23:38:57.210Z,21.93
2022-12-04T23:41:13.479Z,23.67
2022-12-04T23:43:18.445Z,22.30
2022-12-04T23:45:20.191Z,23.63
2022-12-04T23:47:21.879Z,23.13
2022-12-04T23:49:23.681Z,23.07
2022-12-04T23:51:25.845Z,24.67
2022-12-04T23:53:27.562Z,23.87
2022-12-04T23:55:34.079Z,23.47
2022-12-04T23:57:36.307Z,25.73
2022-12-04T23:59:38.060Z,23.70
